SAWE

Hermes Quijada International Airport

Rio Grande, Argentina
TAF SAWE 212300Z 2200/2224 20010KT CAVOK TX05/2219Z TNM03/2210Z BECMG 2210/2213 9999 SCT020 BKN030
Issued Valid From Valid To
Sep-21 @ 23:00 UTC
(5 hours ago)
Sep-22 @ 00:00 UTC
(4 hours ago)
Sep-23 @ 00:00 UTC
(in 20 hours)
to
to
TAF SAWE 212300Z 2200/2224 20010KT CAVOK TX05/2219Z TNM03/2210Z BECMG 2210/2213 9999 SCT020 BKN030
Issued Sep-21 @ 23:00 UTC
(5 hours ago)
Valid From Sep-22 @ 00:00 UTC
(4 hours ago)
Valid To Sep-23 @ 00:00 UTC
(in 20 hours)
-
-